sensor_id;sensor_type;location;lat;lon;timestamp;pressure;altitude;pressure_sealevel;temperature;humidity
70909;BME280;58554;52.006;5.926;2023-02-20T00:00:49;101707.47;;;3.72;93.00
70909;BME280;58554;52.006;5.926;2023-02-20T00:03:16;101699.56;;;3.75;92.64
70909;BME280;58554;52.006;5.926;2023-02-20T00:05:45;101693.44;;;3.77;93.24
70909;BME280;58554;52.006;5.926;2023-02-20T00:08:12;101685.59;;;3.77;93.37
70909;BME280;58554;52.006;5.926;2023-02-20T00:10:38;101677.69;;;3.79;93.23
70909;BME280;58554;52.006;5.926;2023-02-20T00:13:05;101677.69;;;3.80;93.02
70909;BME280;58554;52.006;5.926;2023-02-20T00:15:32;101686.38;;;3.84;92.70
70909;BME280;58554;52.006;5.926;2023-02-20T00:17:58;101680.22;;;3.85;92.99
70909;BME280;58554;52.006;5.926;2023-02-20T00:20:25;101671.50;;;3.88;93.04
70909;BME280;58554;52.006;5.926;2023-02-20T00:22:55;101669.72;;;3.88;93.04
70909;BME280;58554;52.006;5.926;2023-02-20T00:25:21;101665.34;;;3.90;93.10
70909;BME280;58554;52.006;5.926;2023-02-20T00:27:48;101652.25;;;3.90;93.18
70909;BME280;58554;52.006;5.926;2023-02-20T00:30:17;101657.44;;;3.93;92.85
70909;BME280;58554;52.006;5.926;2023-02-20T00:32:47;101657.41;;;3.95;92.86
70909;BME280;58554;52.006;5.926;2023-02-20T00:35:16;101654.72;;;3.98;92.83
70909;BME280;58554;52.006;5.926;2023-02-20T00:37:44;101642.47;;;4.01;92.73
70909;BME280;58554;52.006;5.926;2023-02-20T00:40:15;101641.63;;;4.01;92.99
70909;BME280;58554;52.006;5.926;2023-02-20T00:42:43;101643.31;;;4.05;92.70
70909;BME280;58554;52.006;5.926;2023-02-20T00:45:10;101642.44;;;4.04;92.61
70909;BME280;58554;52.006;5.926;2023-02-20T00:47:38;101637.16;;;4.07;92.50
70909;BME280;58554;52.006;5.926;2023-02-20T00:50:06;101638.84;;;4.10;92.64
70909;BME280;58554;52.006;5.926;2023-02-20T00:52:35;101614.41;;;4.11;92.64
70909;BME280;58554;52.006;5.926;2023-02-20T00:55:03;101618.72;;;4.14;92.64
70909;BME280;58554;52.006;5.926;2023-02-20T00:57:33;101619.56;;;4.16;92.35
70909;BME280;58554;52.006;5.926;2023-02-20T00:59:59;101620.41;;;4.18;92.45
70909;BME280;58554;52.006;5.926;2023-02-20T01:02:26;101615.13;;;4.21;92.54
70909;BME280;58554;52.006;5.926;2023-02-20T01:04:53;101613.31;;;4.24;92.31
70909;BME280;58554;52.006;5.926;2023-02-20T01:07:19;101602.88;;;4.23;92.35
70909;BME280;58554;52.006;5.926;2023-02-20T01:09:46;101592.41;;;4.23;92.24
70909;BME280;58554;52.006;5.926;2023-02-20T01:12:12;101602.91;;;4.21;92.28
70909;BME280;58554;52.006;5.926;2023-02-20T01:14:41;101602.91;;;4.20;92.13
70909;BME280;58554;52.006;5.926;2023-02-20T01:17:09;101587.28;;;4.15;92.25
70909;BME280;58554;52.006;5.926;2023-02-20T01:19:37;101589.06;;;4.13;92.39
70909;BME280;58554;52.006;5.926;2023-02-20T01:22:04;101594.31;;;4.12;92.12
70909;BME280;58554;52.006;5.926;2023-02-20T01:24:30;101587.38;;;4.11;92.38
70909;BME280;58554;52.006;5.926;2023-02-20T01:26:57;101580.41;;;4.10;92.24
70909;BME280;58554;52.006;5.926;2023-02-20T01:29:23;101573.47;;;4.09;92.27
70909;BME280;58554;52.006;5.926;2023-02-20T01:31:52;101566.47;;;4.07;92.14
70909;BME280;58554;52.006;5.926;2023-02-20T01:34:20;101553.41;;;4.07;92.42
70909;BME280;58554;52.006;5.926;2023-02-20T01:36:49;101542.94;;;4.07;92.35
70909;BME280;58554;52.006;5.926;2023-02-20T01:39:18;101548.22;;;4.04;92.46
70909;BME280;58554;52.006;5.926;2023-02-20T01:41:46;101556.94;;;4.05;92.78
70909;BME280;58554;52.006;5.926;2023-02-20T01:44:18;101543.84;;;4.05;92.57
70909;BME280;58554;52.006;5.926;2023-02-20T01:46:52;101538.63;;;4.03;92.60
70909;BME280;58554;52.006;5.926;2023-02-20T01:49:29;101521.25;;;4.01;92.41
70909;BME280;58554;52.006;5.926;2023-02-20T01:52:04;101523.00;;;4.00;92.78
70909;BME280;58554;52.006;5.926;2023-02-20T01:54:34;101536.94;;;4.02;92.47
70909;BME280;58554;52.006;5.926;2023-02-20T01:57:07;101536.97;;;3.99;92.21
70909;BME280;58554;52.006;5.926;2023-02-20T01:59:39;101540.50;;;3.97;92.32
70909;BME280;58554;52.006;5.926;2023-02-20T02:02:11;101543.13;;;3.95;92.19
70909;BME280;58554;52.006;5.926;2023-02-20T02:04:39;101532.69;;;3.94;92.35
70909;BME280;58554;52.006;5.926;2023-02-20T02:07:08;101528.34;;;3.94;92.11
70909;BME280;58554;52.006;5.926;2023-02-20T02:09:40;101517.03;;;3.92;92.34
70909;BME280;58554;52.006;5.926;2023-02-20T02:12:12;101526.66;;;3.92;92.30
70909;BME280;58554;52.006;5.926;2023-02-20T02:14:39;101526.66;;;3.92;92.74
70909;BME280;58554;52.006;5.926;2023-02-20T02:17:41;101510.97;;;3.92;93.02
70909;BME280;58554;52.006;5.926;2023-02-20T02:21:10;101507.44;;;3.93;92.88
70909;BME280;58554;52.006;5.926;2023-02-20T02:24:24;101497.81;;;3.93;92.49
70909;BME280;58554;52.006;5.926;2023-02-20T02:30:54;101483.88;;;3.93;92.82
70909;BME280;58554;52.006;5.926;2023-02-20T02:37:23;101483.78;;;3.99;93.31
70909;BME280;58554;52.006;5.926;2023-02-20T02:40:00;101491.53;;;4.03;93.83
70909;BME280;58554;52.006;5.926;2023-02-20T02:42:39;101494.94;;;4.09;93.42
70909;BME280;58554;52.006;5.926;2023-02-20T02:45:18;101481.75;;;4.13;93.12
70909;BME280;58554;52.006;5.926;2023-02-20T02:47:58;101486.06;;;4.17;93.43
70909;BME280;58554;52.006;5.926;2023-02-20T02:50:34;101483.31;;;4.23;93.40
70909;BME280;58554;52.006;5.926;2023-02-20T02:53:07;101476.25;;;4.27;93.11
70909;BME280;58554;52.006;5.926;2023-02-20T02:55:36;101482.31;;;4.29;93.47
70909;BME280;58554;52.006;5.926;2023-02-20T02:58:03;101470.06;;;4.31;93.49
70909;BME280;58554;52.006;5.926;2023-02-20T03:00:34;101470.84;;;4.36;93.09
70909;BME280;58554;52.006;5.926;2023-02-20T03:03:07;101468.19;;;4.38;93.06
70909;BME280;58554;52.006;5.926;2023-02-20T03:05:43;101459.41;;;4.40;93.18
70909;BME280;58554;52.006;5.926;2023-02-20T03:08:32;101450.63;;;4.43;93.14
70909;BME280;58554;52.006;5.926;2023-02-20T03:11:06;101456.72;;;4.43;93.50
70909;BME280;58554;52.006;5.926;2023-02-20T03:13:40;101463.66;;;4.46;93.58
70909;BME280;58554;52.006;5.926;2023-02-20T03:16:10;101452.28;;;4.47;93.38
70909;BME280;58554;52.006;5.926;2023-02-20T03:18:41;101450.50;;;4.49;93.42
70909;BME280;58554;52.006;5.926;2023-02-20T03:21:12;101453.91;;;4.53;93.56
70909;BME280;58554;52.006;5.926;2023-02-20T03:23:51;101457.38;;;4.55;93.57
70909;BME280;58554;52.006;5.926;2023-02-20T03:26:30;101456.44;;;4.57;93.30
70909;BME280;58554;52.006;5.926;2023-02-20T03:29:02;101458.16;;;4.58;93.20
70909;BME280;58554;52.006;5.926;2023-02-20T03:31:36;101444.16;;;4.61;93.37
70909;BME280;58554;52.006;5.926;2023-02-20T03:34:10;101439.75;;;4.61;93.52
70909;BME280;58554;52.006;5.926;2023-02-20T03:36:45;101428.34;;;4.64;93.45
70909;BME280;58554;52.006;5.926;2023-02-20T03:39:22;101427.47;;;4.65;93.70
70909;BME280;58554;52.006;5.926;2023-02-20T03:41:58;101436.19;;;4.65;93.48
70909;BME280;58554;52.006;5.926;2023-02-20T03:44:27;101435.25;;;4.68;93.59
70909;BME280;58554;52.006;5.926;2023-02-20T03:46:59;101436.09;;;4.68;93.76
70909;BME280;58554;52.006;5.926;2023-02-20T03:49:34;101434.28;;;4.72;93.95
70909;BME280;58554;52.006;5.926;2023-02-20T03:52:05;101449.97;;;4.74;93.89
70909;BME280;58554;52.006;5.926;2023-02-20T03:54:36;101442.94;;;4.76;93.73
70909;BME280;58554;52.006;5.926;2023-02-20T03:57:07;101438.53;;;4.78;93.91
70909;BME280;58554;52.006;5.926;2023-02-20T03:59:41;101436.75;;;4.78;94.00
70909;BME280;58554;52.006;5.926;2023-02-20T04:02:17;101436.66;;;4.83;93.82
70909;BME280;58554;52.006;5.926;2023-02-20T04:04:48;101431.41;;;4.83;93.96
70909;BME280;58554;52.006;5.926;2023-02-20T04:07:23;101427.88;;;4.85;94.18
70909;BME280;58554;52.006;5.926;2023-02-20T04:09:59;101429.56;;;4.88;94.17
70909;BME280;58554;52.006;5.926;2023-02-20T04:12:34;101420.75;;;4.91;94.10
70909;BME280;58554;52.006;5.926;2023-02-20T04:15:06;101431.22;;;4.92;94.08
70909;BME280;58554;52.006;5.926;2023-02-20T04:17:39;101430.31;;;4.95;94.13
70909;BME280;58554;52.006;5.926;2023-02-20T04:20:12;101426.72;;;4.99;94.19
70909;BME280;58554;52.006;5.926;2023-02-20T04:22:41;101421.38;;;5.02;94.11
70909;BME280;58554;52.006;5.926;2023-02-20T04:25:20;101429.22;;;5.03;94.08
70909;BME280;58554;52.006;5.926;2023-02-20T04:27:56;101422.19;;;5.05;94.48
70909;BME280;58554;52.006;5.926;2023-02-20T04:30:22;101433.47;;;5.09;94.34
70909;BME280;58554;52.006;5.926;2023-02-20T04:32:49;101429.06;;;5.11;94.29
70909;BME280;58554;52.006;5.926;2023-02-20T04:35:17;101423.78;;;5.13;94.54
70909;BME280;58554;52.006;5.926;2023-02-20T04:37:46;101418.44;;;5.16;94.34
70909;BME280;58554;52.006;5.926;2023-02-20T04:40:19;101410.53;;;5.19;93.99
70909;BME280;58554;52.006;5.926;2023-02-20T04:42:47;101409.59;;;5.21;94.00
70909;BME280;58554;52.006;5.926;2023-02-20T04:45:13;101409.59;;;5.21;94.46
70909;BME280;58554;52.006;5.926;2023-02-20T04:47:40;101397.31;;;5.23;94.17
70909;BME280;58554;52.006;5.926;2023-02-20T04:50:07;101410.41;;;5.23;94.29
70909;BME280;58554;52.006;5.926;2023-02-20T04:52:34;101414.72;;;5.26;94.23
70909;BME280;58554;52.006;5.926;2023-02-20T04:55:00;101412.91;;;5.28;94.01
70909;BME280;58554;52.006;5.926;2023-02-20T04:57:30;101409.38;;;5.29;94.22
70909;BME280;58554;52.006;5.926;2023-02-20T04:59:57;101405.88;;;5.30;94.29
70909;BME280;58554;52.006;5.926;2023-02-20T05:02:23;101407.56;;;5.31;94.13
70909;BME280;58554;52.006;5.926;2023-02-20T05:04:50;101403.22;;;5.32;94.27
70909;BME280;58554;52.006;5.926;2023-02-20T05:07:19;101403.16;;;5.33;94.14
70909;BME280;58554;52.006;5.926;2023-02-20T05:09:46;101392.63;;;5.35;94.16
70909;BME280;58554;52.006;5.926;2023-02-20T05:12:12;101405.69;;;5.38;94.07
70909;BME280;58554;52.006;5.926;2023-02-20T05:14:41;101391.66;;;5.39;93.97
70909;BME280;58554;52.006;5.926;2023-02-20T05:17:08;101402.13;;;5.40;93.79
70909;BME280;58554;52.006;5.926;2023-02-20T05:19:37;101405.59;;;5.41;93.77
70909;BME280;58554;52.006;5.926;2023-02-20T05:22:08;101399.41;;;5.43;93.62
70909;BME280;58554;52.006;5.926;2023-02-20T05:24:36;101406.38;;;5.44;93.95
70909;BME280;58554;52.006;5.926;2023-02-20T05:27:02;101401.97;;;5.46;93.74
70909;BME280;58554;52.006;5.926;2023-02-20T05:29:29;101411.50;;;5.49;93.53
70909;BME280;58554;52.006;5.926;2023-02-20T05:31:58;101403.56;;;5.52;93.62
70909;BME280;58554;52.006;5.926;2023-02-20T05:34:25;101414.88;;;5.54;93.98
70909;BME280;58554;52.006;5.926;2023-02-20T05:36:51;101393.84;;;5.56;93.62
70909;BME280;58554;52.006;5.926;2023-02-20T05:39:19;101399.88;;;5.59;93.49
70909;BME280;58554;52.006;5.926;2023-02-20T05:41:46;101400.72;;;5.60;93.58
70909;BME280;58554;52.006;5.926;2023-02-20T05:44:12;101392.00;;;5.59;93.71
70909;BME280;58554;52.006;5.926;2023-02-20T05:46:40;101394.50;;;5.64;93.82
70909;BME280;58554;52.006;5.926;2023-02-20T05:49:10;101379.66;;;5.63;93.86
70909;BME280;58554;52.006;5.926;2023-02-20T05:51:38;101376.06;;;5.67;93.77
70909;BME280;58554;52.006;5.926;2023-02-20T05:54:05;101373.38;;;5.68;93.62
70909;BME280;58554;52.006;5.926;2023-02-20T05:56:32;101374.19;;;5.71;93.54
70909;BME280;58554;52.006;5.926;2023-02-20T05:58:59;101360.19;;;5.72;93.38
70909;BME280;58554;52.006;5.926;2023-02-20T06:01:28;101371.47;;;5.75;93.31
70909;BME280;58554;52.006;5.926;2023-02-20T06:03:57;101369.59;;;5.79;93.38
70909;BME280;58554;52.006;5.926;2023-02-20T06:06:31;101368.72;;;5.80;93.07
70909;BME280;58554;52.006;5.926;2023-02-20T06:08:58;101372.16;;;5.82;93.17
70909;BME280;58554;52.006;5.926;2023-02-20T06:11:25;101382.63;;;5.83;93.26
70909;BME280;58554;52.006;5.926;2023-02-20T06:13:51;101372.06;;;5.85;92.92
70909;BME280;58554;52.006;5.926;2023-02-20T06:16:25;101376.41;;;5.86;92.78
70909;BME280;58554;52.006;5.926;2023-02-20T06:18:54;101379.00;;;5.87;92.94
70909;BME280;58554;52.006;5.926;2023-02-20T06:21:22;101384.19;;;5.89;92.75
70909;BME280;58554;52.006;5.926;2023-02-20T06:23:53;101380.69;;;5.90;92.77
70909;BME280;58554;52.006;5.926;2023-02-20T06:26:21;101377.97;;;5.92;92.84
70909;BME280;58554;52.006;5.926;2023-02-20T06:28:48;101377.09;;;5.93;92.91
70909;BME280;58554;52.006;5.926;2023-02-20T06:31:21;101390.19;;;5.94;92.89
70909;BME280;58554;52.006;5.926;2023-02-20T06:33:49;101382.22;;;5.97;92.76
70909;BME280;58554;52.006;5.926;2023-02-20T06:36:20;101383.88;;;6.00;92.86
70909;BME280;58554;52.006;5.926;2023-02-20T06:38:52;101376.88;;;6.00;92.49
70909;BME280;58554;52.006;5.926;2023-02-20T06:41:19;101378.59;;;6.01;92.83
70909;BME280;58554;52.006;5.926;2023-02-20T06:43:45;101380.22;;;6.05;92.63
70909;BME280;58554;52.006;5.926;2023-02-20T06:46:12;101368.88;;;6.05;92.66
70909;BME280;58554;52.006;5.926;2023-02-20T06:48:43;101383.66;;;6.07;92.53
70909;BME280;58554;52.006;5.926;2023-02-20T06:51:10;101378.38;;;6.09;92.51
70909;BME280;58554;52.006;5.926;2023-02-20T06:53:37;101387.13;;;6.09;92.54
70909;BME280;58554;52.006;5.926;2023-02-20T06:56:09;101379.16;;;6.13;92.39
70909;BME280;58554;52.006;5.926;2023-02-20T06:58:39;101377.34;;;6.15;92.37
70909;BME280;58554;52.006;5.926;2023-02-20T07:01:07;101373.78;;;6.17;92.28
70909;BME280;58554;52.006;5.926;2023-02-20T07:03:34;101369.38;;;6.18;92.38
70909;BME280;58554;52.006;5.926;2023-02-20T07:06:00;101382.44;;;6.21;92.23
70909;BME280;58554;52.006;5.926;2023-02-20T07:08:27;101371.94;;;6.21;92.38
70909;BME280;58554;52.006;5.926;2023-02-20T07:10:54;101372.78;;;6.21;92.22
70909;BME280;58554;52.006;5.926;2023-02-20T07:13:23;101385.84;;;6.23;92.37
70909;BME280;58554;52.006;5.926;2023-02-20T07:15:49;101387.53;;;6.25;92.27
70909;BME280;58554;52.006;5.926;2023-02-20T07:18:16;101391.03;;;6.26;92.19
70909;BME280;58554;52.006;5.926;2023-02-20T07:20:43;101389.22;;;6.28;91.92
70909;BME280;58554;52.006;5.926;2023-02-20T07:23:10;101376.06;;;6.28;91.88
70909;BME280;58554;52.006;5.926;2023-02-20T07:25:36;101388.28;;;6.29;91.96
70909;BME280;58554;52.006;5.926;2023-02-20T07:28:03;101370.81;;;6.28;91.98
70909;BME280;58554;52.006;5.926;2023-02-20T07:30:32;101380.41;;;6.29;92.03
70909;BME280;58554;52.006;5.926;2023-02-20T07:32:59;101370.78;;;6.29;91.88
70909;BME280;58554;52.006;5.926;2023-02-20T07:35:25;101383.84;;;6.31;91.83
70909;BME280;58554;52.006;5.926;2023-02-20T07:37:52;101382.03;;;6.33;92.06
70909;BME280;58554;52.006;5.926;2023-02-20T07:40:19;101375.84;;;6.36;91.99
70909;BME280;58554;52.006;5.926;2023-02-20T07:42:45;101368.91;;;6.33;91.86
70909;BME280;58554;52.006;5.926;2023-02-20T07:45:12;101383.66;;;6.37;91.76
70909;BME280;58554;52.006;5.926;2023-02-20T07:47:41;101383.63;;;6.39;91.85
70909;BME280;58554;52.006;5.926;2023-02-20T07:50:08;101379.22;;;6.39;91.89
70909;BME280;58554;52.006;5.926;2023-02-20T07:52:35;101382.66;;;6.41;91.92
70909;BME280;58554;52.006;5.926;2023-02-20T07:55:04;101385.28;;;6.41;91.74
70909;BME280;58554;52.006;5.926;2023-02-20T07:57:32;101387.03;;;6.42;91.61
70909;BME280;58554;52.006;5.926;2023-02-20T08:00:02;101388.81;;;6.42;91.77
70909;BME280;58554;52.006;5.926;2023-02-20T08:02:29;101361.66;;;6.41;91.89
70909;BME280;58554;52.006;5.926;2023-02-20T08:04:58;101383.47;;;6.43;91.98
70909;BME280;58554;52.006;5.926;2023-02-20T08:07:25;101392.19;;;6.45;91.95
70909;BME280;58554;52.006;5.926;2023-02-20T08:09:51;101386.84;;;6.48;91.92
70909;BME280;58554;52.006;5.926;2023-02-20T08:12:18;101391.19;;;6.49;91.87
70909;BME280;58554;52.006;5.926;2023-02-20T08:14:44;101395.50;;;6.52;91.72
70909;BME280;58554;52.006;5.926;2023-02-20T08:17:11;101385.00;;;6.52;91.77
70909;BME280;58554;52.006;5.926;2023-02-20T08:19:37;101393.63;;;6.56;91.78
70909;BME280;58554;52.006;5.926;2023-02-20T08:22:07;101411.97;;;6.57;91.85
70909;BME280;58554;52.006;5.926;2023-02-20T08:24:33;101400.53;;;6.58;91.63
70909;BME280;58554;52.006;5.926;2023-02-20T08:27:00;101406.63;;;6.60;91.96
70909;BME280;58554;52.006;5.926;2023-02-20T08:29:26;101399.50;;;6.64;91.69
70909;BME280;58554;52.006;5.926;2023-02-20T08:31:53;101405.56;;;6.66;92.08
70909;BME280;58554;52.006;5.926;2023-02-20T08:34:19;101389.66;;;6.70;91.61
70909;BME280;58554;52.006;5.926;2023-02-20T08:36:46;101395.72;;;6.73;91.77
70909;BME280;58554;52.006;5.926;2023-02-20T08:39:15;101391.34;;;6.73;91.72
70909;BME280;58554;52.006;5.926;2023-02-20T08:41:42;101394.69;;;6.78;91.67
70909;BME280;58554;52.006;5.926;2023-02-20T08:44:11;101388.47;;;6.81;91.24
70909;BME280;58554;52.006;5.926;2023-02-20T08:46:44;101386.72;;;6.81;91.59
70909;BME280;58554;52.006;5.926;2023-02-20T08:49:12;101391.81;;;6.86;91.49
70909;BME280;58554;52.006;5.926;2023-02-20T08:51:38;101390.81;;;6.90;91.33
70909;BME280;58554;52.006;5.926;2023-02-20T08:54:05;101381.97;;;6.93;91.34
70909;BME280;58554;52.006;5.926;2023-02-20T08:56:34;101373.97;;;6.96;91.21
70909;BME280;58554;52.006;5.926;2023-02-20T08:59:01;101382.81;;;6.93;91.02
70909;BME280;58554;52.006;5.926;2023-02-20T09:01:27;101377.47;;;6.96;91.03
70909;BME280;58554;52.006;5.926;2023-02-20T09:03:54;101376.41;;;7.02;90.97
70909;BME280;58554;52.006;5.926;2023-02-20T09:06:21;101371.06;;;7.05;91.18
70909;BME280;58554;52.006;5.926;2023-02-20T09:08:47;101371.91;;;7.05;91.00
70909;BME280;58554;52.006;5.926;2023-02-20T09:11:14;101370.00;;;7.10;91.09
70909;BME280;58554;52.006;5.926;2023-02-20T09:13:44;101358.56;;;7.11;90.71
70909;BME280;58554;52.006;5.926;2023-02-20T09:16:13;101363.78;;;7.13;90.53
70909;BME280;58554;52.006;5.926;2023-02-20T09:18:43;101354.22;;;7.10;90.49
70909;BME280;58554;52.006;5.926;2023-02-20T09:21:10;101357.69;;;7.11;90.59
70909;BME280;58554;52.006;5.926;2023-02-20T09:23:39;101353.28;;;7.11;90.90
70909;BME280;58554;52.006;5.926;2023-02-20T09:26:06;101344.44;;;7.14;90.83
70909;BME280;58554;52.006;5.926;2023-02-20T09:28:33;101343.50;;;7.17;91.26
70909;BME280;58554;52.006;5.926;2023-02-20T09:31:02;101346.97;;;7.17;90.86
70909;BME280;58554;52.006;5.926;2023-02-20T09:33:29;101342.53;;;7.19;90.81
70909;BME280;58554;52.006;5.926;2023-02-20T09:35:56;101358.19;;;7.22;90.86
70909;BME280;58554;52.006;5.926;2023-02-20T09:38:23;101346.69;;;7.25;90.94
70909;BME280;58554;52.006;5.926;2023-02-20T09:40:52;101348.25;;;7.30;91.01
70909;BME280;58554;52.006;5.926;2023-02-20T09:43:32;101350.84;;;7.32;90.95
70909;BME280;58554;52.006;5.926;2023-02-20T09:46:16;101358.59;;;7.37;90.62
70909;BME280;58554;52.006;5.926;2023-02-20T09:49:09;101359.38;;;7.39;90.73
70909;BME280;58554;52.006;5.926;2023-02-20T09:51:41;101347.16;;;7.38;90.51
70909;BME280;58554;52.006;5.926;2023-02-20T09:54:17;101354.25;;;7.36;90.30
70909;BME280;58554;52.006;5.926;2023-02-20T09:56:54;101346.34;;;7.36;90.51
70909;BME280;58554;52.006;5.926;2023-02-20T09:59:25;101343.72;;;7.36;90.62
70909;BME280;58554;52.006;5.926;2023-02-20T10:02:02;101363.03;;;7.35;90.39
70909;BME280;58554;52.006;5.926;2023-02-20T10:04:41;101346.44;;;7.32;90.68
70909;BME280;58554;52.006;5.926;2023-02-20T10:07:16;101357.94;;;7.30;90.31
70909;BME280;58554;52.006;5.926;2023-02-20T10:09:50;101344.66;;;7.33;90.79
70909;BME280;58554;52.006;5.926;2023-02-20T10:12:21;101361.16;;;7.38;90.95
70909;BME280;58554;52.006;5.926;2023-02-20T10:15:07;101355.84;;;7.40;90.50
70909;BME280;58554;52.006;5.926;2023-02-20T10:17:49;101361.97;;;7.42;90.51
70909;BME280;58554;52.006;5.926;2023-02-20T10:20:31;101368.03;;;7.44;90.78
70909;BME280;58554;52.006;5.926;2023-02-20T10:23:12;101376.72;;;7.46;90.81
70909;BME280;58554;52.006;5.926;2023-02-20T10:25:52;101373.09;;;7.50;90.55
70909;BME280;58554;52.006;5.926;2023-02-20T10:28:23;101356.53;;;7.46;90.22
70909;BME280;58554;52.006;5.926;2023-02-20T10:30:56;101365.28;;;7.47;90.61
70909;BME280;58554;52.006;5.926;2023-02-20T10:33:30;101372.28;;;7.48;90.73
70909;BME280;58554;52.006;5.926;2023-02-20T10:36:09;101374.03;;;7.47;90.32
70909;BME280;58554;52.006;5.926;2023-02-20T10:38:46;101380.16;;;7.48;90.60
70909;BME280;58554;52.006;5.926;2023-02-20T10:41:21;101394.19;;;7.48;90.41
70909;BME280;58554;52.006;5.926;2023-02-20T10:44:00;101395.97;;;7.48;90.39
70909;BME280;58554;52.006;5.926;2023-02-20T10:46:35;101399.47;;;7.47;90.33
70909;BME280;58554;52.006;5.926;2023-02-20T10:49:15;101397.72;;;7.47;90.35
70909;BME280;58554;52.006;5.926;2023-02-20T10:51:50;101385.44;;;7.48;90.52
70909;BME280;58554;52.006;5.926;2023-02-20T10:54:24;101403.84;;;7.48;90.59
70909;BME280;58554;52.006;5.926;2023-02-20T10:57:02;101399.44;;;7.48;90.44
70909;BME280;58554;52.006;5.926;2023-02-20T10:59:40;101369.56;;;7.49;90.16
70909;BME280;58554;52.006;5.926;2023-02-20T11:02:18;101367.00;;;7.48;90.30
70909;BME280;58554;52.006;5.926;2023-02-20T11:04:55;101361.63;;;7.51;90.29
70909;BME280;58554;52.006;5.926;2023-02-20T11:07:28;101364.22;;;7.53;90.11
70909;BME280;58554;52.006;5.926;2023-02-20T11:09:54;101364.03;;;7.57;90.41
70909;BME280;58554;52.006;5.926;2023-02-20T11:12:26;101348.94;;;7.62;90.14
70909;BME280;58554;52.006;5.926;2023-02-20T11:14:59;101351.66;;;7.61;89.99
70909;BME280;58554;52.006;5.926;2023-02-20T11:17:32;101346.44;;;7.59;89.79
70909;BME280;58554;52.006;5.926;2023-02-20T11:20:38;101346.22;;;7.65;90.14
70909;BME280;58554;52.006;5.926;2023-02-20T11:23:07;101345.28;;;7.66;90.04
70909;BME280;58554;52.006;5.926;2023-02-20T11:25:35;101333.00;;;7.67;89.60
70909;BME280;58554;52.006;5.926;2023-02-20T11:28:09;101320.69;;;7.67;89.70
70909;BME280;58554;52.006;5.926;2023-02-20T11:30:47;101298.59;;;7.71;90.10
70909;BME280;58554;52.006;5.926;2023-02-20T11:33:25;101314.34;;;7.73;89.15
70909;BME280;58554;52.006;5.926;2023-02-20T11:36:09;101326.53;;;7.76;89.56
70909;BME280;58554;52.006;5.926;2023-02-20T11:38:39;101336.09;;;7.78;89.38
70909;BME280;58554;52.006;5.926;2023-02-20T11:41:15;101326.50;;;7.77;89.40
70909;BME280;58554;52.006;5.926;2023-02-20T11:44:20;101279.25;;;7.73;88.82
70909;BME280;58554;52.006;5.926;2023-02-20T11:47:09;101295.03;;;7.73;89.02
70909;BME280;58554;52.006;5.926;2023-02-20T11:49:43;101312.53;;;7.75;89.42
70909;BME280;58554;52.006;5.926;2023-02-20T11:52:15;101309.75;;;7.78;89.48
70909;BME280;58554;52.006;5.926;2023-02-20T11:54:44;101308.78;;;7.81;89.15
70909;BME280;58554;52.006;5.926;2023-02-20T11:57:25;101312.44;;;7.77;88.76
70909;BME280;58554;52.006;5.926;2023-02-20T12:00:14;101326.41;;;7.79;88.91
70909;BME280;58554;52.006;5.926;2023-02-20T12:02:53;101324.66;;;7.79;88.90
70909;BME280;58554;52.006;5.926;2023-02-20T12:05:37;101331.00;;;7.74;88.82
70909;BME280;58554;52.006;5.926;2023-02-20T12:08:30;101336.34;;;7.70;89.06
70909;BME280;58554;52.006;5.926;2023-02-20T12:11:04;101318.88;;;7.69;89.44
70909;BME280;58554;52.006;5.926;2023-02-20T12:13:37;101306.59;;;7.68;89.40
70909;BME280;58554;52.006;5.926;2023-02-20T12:16:22;101315.53;;;7.64;89.11
70909;BME280;58554;52.006;5.926;2023-02-20T12:19:02;101345.34;;;7.65;89.38
70909;BME280;58554;52.006;5.926;2023-02-20T12:21:48;101328.69;;;7.64;89.27
70909;BME280;58554;52.006;5.926;2023-02-20T12:24:38;101318.16;;;7.64;89.07
70909;BME280;58554;52.006;5.926;2023-02-20T12:27:25;101315.59;;;7.63;89.10
70909;BME280;58554;52.006;5.926;2023-02-20T12:30:16;101333.09;;;7.64;89.37
70909;BME280;58554;52.006;5.926;2023-02-20T12:33:00;101331.28;;;7.66;89.42
70909;BME280;58554;52.006;5.926;2023-02-20T12:35:50;101320.56;;;7.70;89.62
70909;BME280;58554;52.006;5.926;2023-02-20T12:38:40;101326.59;;;7.74;89.42
70909;BME280;58554;52.006;5.926;2023-02-20T12:41:28;101318.75;;;7.73;89.36
70909;BME280;58554;52.006;5.926;2023-02-20T12:44:14;101313.56;;;7.71;89.30
70909;BME280;58554;52.006;5.926;2023-02-20T12:47:15;101306.47;;;7.73;89.19
70909;BME280;58554;52.006;5.926;2023-02-20T12:50:09;101316.00;;;7.76;89.04
70909;BME280;58554;52.006;5.926;2023-02-20T12:53:03;101292.25;;;7.77;89.35
70909;BME280;58554;52.006;5.926;2023-02-20T12:55:47;101292.31;;;7.76;88.85
70909;BME280;58554;52.006;5.926;2023-02-20T12:58:29;101290.34;;;7.81;89.05
70909;BME280;58554;52.006;5.926;2023-02-20T13:01:06;101298.09;;;7.85;89.17
70909;BME280;58554;52.006;5.926;2023-02-20T13:03:43;101290.06;;;7.88;88.96
70909;BME280;58554;52.006;5.926;2023-02-20T13:06:23;101293.59;;;7.87;88.72
70909;BME280;58554;52.006;5.926;2023-02-20T13:09:02;101286.50;;;7.89;88.94
70909;BME280;58554;52.006;5.926;2023-02-20T13:11:39;101292.75;;;7.87;88.50
70909;BME280;58554;52.006;5.926;2023-02-20T13:14:24;101277.03;;;7.85;88.75
70909;BME280;58554;52.006;5.926;2023-02-20T13:17:08;101295.34;;;7.88;88.72
70909;BME280;58554;52.006;5.926;2023-02-20T13:19:51;101299.63;;;7.91;88.99
70909;BME280;58554;52.006;5.926;2023-02-20T13:22:21;101268.88;;;7.91;88.93
70909;BME280;58554;52.006;5.926;2023-02-20T13:24:48;101291.72;;;7.91;88.95
70909;BME280;58554;52.006;5.926;2023-02-20T13:27:28;101297.00;;;7.91;89.01
70909;BME280;58554;52.006;5.926;2023-02-20T13:30:00;101286.50;;;7.89;88.79
70909;BME280;58554;52.006;5.926;2023-02-20T13:32:35;101283.81;;;7.91;88.80
70909;BME280;58554;52.006;5.926;2023-02-20T13:38:17;101265.34;;;7.93;88.46